KSEA METAR and TAF | Updated Today

KSEA METAR

Seattle Tacoma International Airport

Observation time: 5 min. ago

KSEA 011453Z 14006KT 10SM SCT130 BKN190 01/M05 A3014 RMK AO2 SLP216 T00111050 56004

Need help? Read our tutorial on how to read METARs or read the parsed version below.

Seattle Tacoma International Airport (KSEA) METAR

  • Weather conditions on Wed, 01 Feb 2023 14:53:00 +0000 (5 min. ago):
  • Present conditions: Dry
  • Clouds: Scattered at 3962 meters; broken sky at 5791 meters
  • Visibility: 16093 meters
  • Wind: 140 degrees at 6 knots
  • Temperature: 1 celsius
  • Dew point: -5 celsius
  • Pressure: 30.14 inHg
  • Remarks: AO2 SLP216 T00111050 56004


Useful to know...

KSEA TAF

Seattle Tacoma International Airport

KSEA 011416Z 0114/0218 14004KT P6SM OVC150 FM012000 21004KT P6SM BKN250 FM020300 VRB03KT P6SM BKN250
Observation time: 42 min. ago
Need help? Read our tutorial on how to read TAFs or read the parsed version below.

Parsed version of TAF for Seattle Tacoma International Airport (KSEA)

  • From 01 February at 14:00 UTC, to day 02 of the month at 18:00 UTC
  • Clouds: Overcast sky at 4572 meters
  • Wind: 140 degrees at 4
  • From day 1 of the month at 20:00 UTC
  • Clouds: Broken sky at 7620 meters
  • Wind: 210 degrees at 4
  • From day 2 of the month at 03:00 UTC
  • Clouds: Broken sky at 7620 meters
  • Wind: Variable at 3